createdAt,value
2018-07-12T00:00:13.228Z,13.60
2018-07-12T00:02:40.714Z,13.60
2018-07-12T00:05:08.175Z,13.50
2018-07-12T00:07:35.659Z,13.50
2018-07-12T00:10:03.118Z,13.50
2018-07-12T00:12:30.572Z,13.40
2018-07-12T00:14:58.060Z,13.40
2018-07-12T00:17:25.519Z,13.40
2018-07-12T00:19:53.283Z,13.30
2018-07-12T00:22:20.753Z,13.30
2018-07-12T00:24:48.375Z,13.20
2018-07-12T00:27:15.984Z,13.20
2018-07-12T00:29:43.555Z,13.20
2018-07-12T00:32:11.060Z,13.20
2018-07-12T00:34:38.528Z,13.30
2018-07-12T00:37:06.032Z,13.20
2018-07-12T00:39:33.548Z,13.30
2018-07-12T00:42:01.016Z,13.30
2018-07-12T00:44:28.487Z,13.30
2018-07-12T00:46:55.942Z,13.20
2018-07-12T00:49:23.539Z,13.20
2018-07-12T00:51:51.005Z,13.10
2018-07-12T00:54:18.558Z,13.10
2018-07-12T00:56:46.145Z,13.00
2018-07-12T00:59:13.641Z,13.00
2018-07-12T01:01:41.228Z,12.90
2018-07-12T01:04:08.728Z,12.90
2018-07-12T01:06:36.213Z,12.90
2018-07-12T01:09:04.999Z,12.90
2018-07-12T01:11:32.833Z,12.80
2018-07-12T01:14:00.328Z,12.80
2018-07-12T01:16:27.905Z,12.80
2018-07-12T01:18:55.603Z,12.80
2018-07-12T01:21:23.238Z,12.90
2018-07-12T01:23:50.754Z,12.80
2018-07-12T01:26:18.213Z,12.90
2018-07-12T01:28:45.744Z,12.90
2018-07-12T01:31:13.227Z,12.90
2018-07-12T01:33:40.705Z,12.90
2018-07-12T01:36:08.156Z,12.80
2018-07-12T01:38:35.612Z,12.80
2018-07-12T01:41:03.119Z,12.80
2018-07-12T01:43:30.578Z,12.90
2018-07-12T01:45:58.110Z,12.90
2018-07-12T01:48:25.555Z,12.80
2018-07-12T01:50:53.002Z,12.90
2018-07-12T01:53:20.476Z,12.80
2018-07-12T01:55:47.931Z,12.80
2018-07-12T01:58:15.425Z,12.80
2018-07-12T02:00:42.896Z,12.80
2018-07-12T02:03:10.362Z,12.80
2018-07-12T02:05:37.835Z,12.80
2018-07-12T02:08:05.287Z,12.70
2018-07-12T02:10:32.804Z,12.70
2018-07-12T02:13:00.968Z,12.60
2018-07-12T02:15:28.957Z,12.60
2018-07-12T02:17:56.653Z,12.60
2018-07-12T02:20:24.165Z,12.60
2018-07-12T02:22:51.675Z,12.50
2018-07-12T02:25:19.137Z,12.50
2018-07-12T02:27:46.628Z,12.50
2018-07-12T02:30:14.108Z,12.50
2018-07-12T02:32:41.575Z,12.50
2018-07-12T02:35:09.095Z,12.50
2018-07-12T02:37:36.547Z,12.50
2018-07-12T02:40:04.008Z,12.50
2018-07-12T02:42:31.492Z,12.50
2018-07-12T02:44:58.954Z,12.60
2018-07-12T02:47:26.435Z,12.60
2018-07-12T02:49:54.171Z,12.70
2018-07-12T02:52:21.636Z,12.70
2018-07-12T02:57:16.850Z,12.90
2018-07-12T02:59:44.329Z,13.00
2018-07-12T03:02:11.792Z,13.00
2018-07-12T03:04:39.228Z,13.00
2018-07-12T03:07:06.702Z,13.00
2018-07-12T03:09:34.160Z,13.10
2018-07-12T03:12:01.658Z,13.10
2018-07-12T03:14:29.427Z,13.20
2018-07-12T03:16:56.888Z,13.20
2018-07-12T03:19:24.361Z,13.10
2018-07-12T03:21:51.825Z,13.00
2018-07-12T03:24:19.302Z,13.00
2018-07-12T03:26:46.769Z,13.00
2018-07-12T03:29:14.240Z,12.90
2018-07-12T03:31:41.753Z,13.00
2018-07-12T03:34:09.240Z,13.00
2018-07-12T03:36:36.715Z,13.10
2018-07-12T03:39:04.804Z,13.10
2018-07-12T03:41:32.257Z,13.00
2018-07-12T03:43:59.724Z,13.00
2018-07-12T03:46:27.181Z,13.00
2018-07-12T03:48:54.660Z,12.90
2018-07-12T03:51:22.212Z,12.90
2018-07-12T03:53:49.817Z,12.90
2018-07-12T03:56:17.296Z,13.00
2018-07-12T03:58:44.778Z,13.00
2018-07-12T04:01:12.250Z,13.10
2018-07-12T04:03:39.728Z,13.10
2018-07-12T04:06:07.205Z,13.10
2018-07-12T04:08:34.712Z,13.10
2018-07-12T04:11:02.184Z,13.10
2018-07-12T04:13:29.696Z,13.10
2018-07-12T04:15:57.181Z,13.10
2018-07-12T04:18:24.659Z,13.20
2018-07-12T04:20:52.121Z,13.20
2018-07-12T04:23:19.581Z,13.10
2018-07-12T04:25:47.069Z,13.20
2018-07-12T04:28:14.534Z,13.20
2018-07-12T04:30:42.034Z,13.20
2018-07-12T04:33:09.508Z,13.30
2018-07-12T04:35:36.991Z,13.40
2018-07-12T04:38:04.488Z,13.50
2018-07-12T04:40:31.957Z,13.50
2018-07-12T04:42:59.441Z,13.50
2018-07-12T04:45:26.936Z,13.50
2018-07-12T04:47:54.456Z,13.60
2018-07-12T04:50:21.899Z,13.60
2018-07-12T04:52:49.384Z,13.60
2018-07-12T04:55:16.968Z,13.60
2018-07-12T04:57:44.420Z,13.60
2018-07-12T05:00:11.917Z,13.60
2018-07-12T05:02:39.385Z,13.60
2018-07-12T05:05:06.849Z,13.70
2018-07-12T05:07:34.345Z,13.80
2018-07-12T05:10:01.839Z,13.90
2018-07-12T05:12:29.325Z,14.10
2018-07-12T05:14:56.845Z,14.10
2018-07-12T05:17:24.328Z,14.20
2018-07-12T05:19:51.832Z,14.10
2018-07-12T05:22:19.322Z,14.10
2018-07-12T05:24:46.773Z,14.20
2018-07-12T05:27:14.244Z,14.30
2018-07-12T05:29:41.814Z,14.40
2018-07-12T05:32:09.276Z,14.50
2018-07-12T05:34:36.744Z,14.60
2018-07-12T05:37:06.047Z,14.60
2018-07-12T05:39:34.809Z,14.50
2018-07-12T05:42:03.560Z,14.40
2018-07-12T05:44:32.814Z,14.50
2018-07-12T05:47:01.537Z,14.50
2018-07-12T05:49:30.367Z,14.60
2018-07-12T05:51:59.137Z,14.60
2018-07-12T05:54:28.782Z,14.60
2018-07-12T05:56:57.480Z,14.60
2018-07-12T05:59:26.255Z,14.50
2018-07-12T06:02:05.976Z,14.50
2018-07-12T06:04:34.743Z,14.60
2018-07-12T06:07:03.462Z,14.70
2018-07-12T06:09:32.222Z,14.60
2018-07-12T06:12:01.002Z,14.50
2018-07-12T06:14:29.838Z,14.50
2018-07-12T06:19:27.020Z,14.60
2018-07-12T06:21:55.738Z,14.50
2018-07-12T06:26:53.529Z,14.40
2018-07-12T06:29:24.105Z,14.40
2018-07-12T06:31:52.877Z,14.30
2018-07-12T06:34:21.673Z,14.20
2018-07-12T06:36:50.405Z,14.20
2018-07-12T06:39:19.252Z,14.30
2018-07-12T06:41:48.068Z,14.30
2018-07-12T06:44:16.794Z,14.30
2018-07-12T06:46:45.601Z,14.30
2018-07-12T06:49:14.558Z,14.20
2018-07-12T06:51:43.335Z,14.10
2018-07-12T06:54:12.069Z,14.30
2018-07-12T06:56:40.821Z,14.20
2018-07-12T06:59:09.701Z,14.30
2018-07-12T07:01:38.492Z,14.30
2018-07-12T07:04:07.221Z,14.20
2018-07-12T07:06:35.965Z,14.20
2018-07-12T07:09:07.224Z,14.30
2018-07-12T07:11:35.965Z,14.20
2018-07-12T07:14:04.720Z,14.10
2018-07-12T07:16:33.549Z,14.10
2018-07-12T07:19:02.267Z,14.10
2018-07-12T07:21:30.984Z,14.00
2018-07-12T07:23:59.820Z,14.00
2018-07-12T07:26:28.610Z,14.00
2018-07-12T07:28:57.325Z,14.00
2018-07-12T07:31:26.090Z,13.90
2018-07-12T07:33:54.876Z,13.80
2018-07-12T07:36:23.679Z,13.80
2018-07-12T07:38:52.399Z,13.80
2018-07-12T07:41:21.113Z,13.80
2018-07-12T07:43:49.831Z,13.80
2018-07-12T07:46:18.605Z,13.90
2018-07-12T07:48:47.329Z,13.80
2018-07-12T07:51:16.069Z,13.90
2018-07-12T07:53:44.773Z,13.90
2018-07-12T07:56:13.490Z,13.90
2018-07-12T07:58:42.594Z,13.80
2018-07-12T08:01:11.365Z,13.90
2018-07-12T08:03:40.088Z,13.90
2018-07-12T08:06:08.781Z,13.90
2018-07-12T08:08:37.535Z,13.90
2018-07-12T08:11:06.417Z,14.00
2018-07-12T08:13:35.158Z,14.00
2018-07-12T08:16:03.903Z,14.00
2018-07-12T08:18:32.740Z,13.90
2018-07-12T08:21:01.471Z,14.00
2018-07-12T08:23:30.277Z,14.00
2018-07-12T08:25:58.956Z,13.90
2018-07-12T08:28:28.909Z,14.00
2018-07-12T08:30:57.890Z,14.10
2018-07-12T08:33:26.687Z,14.10
2018-07-12T08:35:55.478Z,14.10
2018-07-12T08:38:24.213Z,14.20
2018-07-12T08:40:52.995Z,14.20
2018-07-12T08:43:21.722Z,14.10
2018-07-12T08:45:50.652Z,14.10
2018-07-12T08:48:19.442Z,14.10
2018-07-12T08:50:48.129Z,14.10
2018-07-12T08:53:16.945Z,14.10
2018-07-12T08:55:45.666Z,14.10
2018-07-12T08:58:14.373Z,14.10
2018-07-12T09:00:43.123Z,14.20
2018-07-12T09:05:40.243Z,14.30
2018-07-12T09:08:08.990Z,14.30
2018-07-12T09:10:37.731Z,14.30
2018-07-12T09:13:06.472Z,14.30
2018-07-12T09:15:35.220Z,14.20
2018-07-12T09:18:03.942Z,14.20
2018-07-12T09:20:32.650Z,14.10
2018-07-12T09:23:01.401Z,14.20
2018-07-12T09:25:30.184Z,14.30
2018-07-12T09:27:58.856Z,14.30
2018-07-12T09:30:27.605Z,14.30
2018-07-12T09:35:24.663Z,14.20
2018-07-12T09:37:53.448Z,14.10
2018-07-12T09:40:22.175Z,14.10
2018-07-12T09:42:50.921Z,14.00
2018-07-12T09:45:19.641Z,13.90
2018-07-12T09:47:48.345Z,14.00
2018-07-12T09:50:17.075Z,13.90
2018-07-12T09:52:45.816Z,13.90
2018-07-12T09:55:14.576Z,14.00
2018-07-12T09:57:54.518Z,13.80
2018-07-12T10:00:27.405Z,13.80
2018-07-12T10:03:01.466Z,13.70
2018-07-12T10:06:07.629Z,13.70
2018-07-12T10:08:41.728Z,13.70
2018-07-12T10:11:14.618Z,13.80
2018-07-12T10:13:46.537Z,13.90
2018-07-12T10:16:20.551Z,14.00
2018-07-12T10:18:49.300Z,14.00
2018-07-12T10:21:18.038Z,13.80
2018-07-12T10:23:46.817Z,14.00
2018-07-12T10:26:15.577Z,14.10
2018-07-12T10:28:44.689Z,14.00
2018-07-12T10:31:13.384Z,14.00
2018-07-12T10:33:42.124Z,14.10
2018-07-12T10:36:10.829Z,14.00
2018-07-12T10:38:46.000Z,14.00
2018-07-12T10:41:14.711Z,14.00
2018-07-12T10:43:43.383Z,14.10
2018-07-12T10:46:12.101Z,14.10
2018-07-12T10:48:40.854Z,14.20
2018-07-12T10:51:09.574Z,14.10
2018-07-12T10:53:38.292Z,14.20
2018-07-12T10:56:07.013Z,14.20
2018-07-12T10:58:35.705Z,14.20
2018-07-12T11:01:04.448Z,14.10
2018-07-12T11:03:33.171Z,14.00
2018-07-12T11:06:01.889Z,14.10
2018-07-12T11:08:30.630Z,14.20
2018-07-12T11:10:59.308Z,14.30
2018-07-12T11:13:59.932Z,14.30
2018-07-12T11:16:28.627Z,14.20
2018-07-12T11:18:57.339Z,14.30
2018-07-12T11:21:26.081Z,14.40
2018-07-12T11:23:54.770Z,14.50
2018-07-12T11:26:23.504Z,14.60
2018-07-12T11:28:52.239Z,14.60
2018-07-12T11:31:20.979Z,14.70
2018-07-12T11:33:50.833Z,14.70
2018-07-12T11:36:19.777Z,14.70
2018-07-12T11:38:48.594Z,14.70
2018-07-12T11:41:17.303Z,14.80
2018-07-12T11:43:46.083Z,14.80
2018-07-12T11:46:15.740Z,14.70
2018-07-12T11:48:45.058Z,14.80
2018-07-12T11:51:13.788Z,14.90
2018-07-12T11:53:43.326Z,14.90
2018-07-12T11:56:12.067Z,15.00
2018-07-12T11:58:40.777Z,14.90
2018-07-12T12:01:09.489Z,15.00
2018-07-12T12:03:38.188Z,15.10
2018-07-12T12:06:06.961Z,15.10
2018-07-12T12:08:35.684Z,15.20
2018-07-12T12:11:04.501Z,15.20
2018-07-12T12:13:33.262Z,15.30
2018-07-12T12:16:02.098Z,15.30
2018-07-12T12:18:30.829Z,15.30
2018-07-12T12:20:59.593Z,15.40
2018-07-12T12:23:28.296Z,15.40
2018-07-12T12:25:56.976Z,15.40
2018-07-12T12:28:25.696Z,15.40
2018-07-12T12:30:54.393Z,15.40
2018-07-12T12:33:23.111Z,15.50
2018-07-12T12:35:51.922Z,15.60
2018-07-12T12:38:20.637Z,15.60
2018-07-12T12:40:49.346Z,15.70
2018-07-12T12:43:18.077Z,15.70
2018-07-12T12:45:46.925Z,15.70
2018-07-12T12:48:15.664Z,15.80
2018-07-12T12:50:44.442Z,15.80
2018-07-12T12:53:13.112Z,15.90
2018-07-12T12:55:41.873Z,16.00
2018-07-12T12:58:10.604Z,16.10
2018-07-12T13:00:39.348Z,16.10
2018-07-12T13:03:08.045Z,16.20
2018-07-12T13:05:36.737Z,16.10
2018-07-12T13:08:05.583Z,16.10
2018-07-12T13:10:34.309Z,16.10
2018-07-12T13:13:03.056Z,16.10
2018-07-12T13:15:31.761Z,16.20
2018-07-12T13:18:00.524Z,16.20
2018-07-12T13:20:29.269Z,16.20
2018-07-12T13:22:58.002Z,16.20
2018-07-12T13:25:26.743Z,16.20
2018-07-12T13:27:55.534Z,16.30
2018-07-12T13:30:24.252Z,16.40
2018-07-12T13:32:52.984Z,16.40
2018-07-12T13:35:21.828Z,16.60
2018-07-12T13:37:50.545Z,16.60
2018-07-12T13:40:19.371Z,16.70
2018-07-12T13:42:48.102Z,16.80
2018-07-12T13:45:16.796Z,16.90
2018-07-12T13:47:45.505Z,17.00
2018-07-12T13:50:14.248Z,17.10
2018-07-12T13:52:42.919Z,17.20
2018-07-12T13:55:11.677Z,17.40
2018-07-12T13:57:40.392Z,17.60
2018-07-12T14:00:09.129Z,17.70
2018-07-12T14:02:37.874Z,17.80
2018-07-12T14:05:06.684Z,17.80
2018-07-12T14:07:35.829Z,17.90
2018-07-12T14:10:04.965Z,17.80
2018-07-12T14:12:33.749Z,17.80
2018-07-12T14:17:30.847Z,17.80
2018-07-12T14:19:59.650Z,17.90
2018-07-12T14:22:28.313Z,17.90
2018-07-12T14:24:56.992Z,17.90
2018-07-12T14:27:25.691Z,18.00
2018-07-12T14:29:54.378Z,18.10
2018-07-12T14:32:23.314Z,18.20
2018-07-12T14:34:52.036Z,18.20
2018-07-12T14:37:20.837Z,18.30
2018-07-12T14:39:49.567Z,18.20
2018-07-12T14:42:18.354Z,18.30
2018-07-12T14:44:47.074Z,18.40
2018-07-12T14:47:15.771Z,18.50
2018-07-12T14:49:44.532Z,18.60
2018-07-12T14:54:41.635Z,18.70
2018-07-12T14:57:11.189Z,18.90
2018-07-12T14:59:40.129Z,19.00
2018-07-12T15:02:08.949Z,19.00
2018-07-12T15:04:37.692Z,19.20
2018-07-12T15:07:06.440Z,19.20
2018-07-12T15:12:03.644Z,19.40
2018-07-12T15:14:32.357Z,19.20
2018-07-12T15:17:01.231Z,19.00
2018-07-12T15:19:29.969Z,18.80
2018-07-12T15:21:58.696Z,18.60
2018-07-12T15:24:27.584Z,18.50
2018-07-12T15:26:56.470Z,18.30
2018-07-12T15:29:25.260Z,18.20
2018-07-12T15:31:53.869Z,18.20
2018-07-12T15:34:22.598Z,18.20
2018-07-12T15:36:51.484Z,18.20
2018-07-12T15:39:20.184Z,18.30
2018-07-12T15:41:48.909Z,18.30
2018-07-12T15:44:17.886Z,18.40
2018-07-12T15:46:46.585Z,18.40
2018-07-12T15:49:15.302Z,18.40
2018-07-12T15:51:44.058Z,18.30
2018-07-12T15:54:13.066Z,18.30
2018-07-12T15:56:41.889Z,18.20
2018-07-12T15:59:10.608Z,18.10
2018-07-12T16:01:39.305Z,18.10
2018-07-12T16:04:08.025Z,18.00
2018-07-12T16:06:36.786Z,18.00
2018-07-12T16:09:07.908Z,17.90
2018-07-12T16:11:36.598Z,18.00
2018-07-12T16:14:05.372Z,18.00
2018-07-12T16:16:34.089Z,18.00
2018-07-12T16:19:02.809Z,18.00
2018-07-12T16:21:31.553Z,18.00
2018-07-12T16:24:00.245Z,18.10
2018-07-12T16:26:28.973Z,18.10
2018-07-12T16:28:57.672Z,18.10
2018-07-12T16:31:26.433Z,18.10
2018-07-12T16:33:55.116Z,18.10
2018-07-12T16:36:23.805Z,18.10
2018-07-12T16:38:52.511Z,18.10
2018-07-12T16:41:21.176Z,18.10
2018-07-12T16:43:50.036Z,18.20
2018-07-12T16:46:18.794Z,18.20
2018-07-12T16:48:48.098Z,18.20
2018-07-12T16:51:16.773Z,18.10
2018-07-12T16:53:45.569Z,18.10
2018-07-12T16:56:14.368Z,18.10
2018-07-12T16:58:43.062Z,18.10
2018-07-12T17:01:11.768Z,18.20
2018-07-12T17:03:40.420Z,18.20
2018-07-12T17:06:09.109Z,18.20
2018-07-12T17:08:38.332Z,18.20
2018-07-12T17:11:07.087Z,18.20
2018-07-12T17:13:35.764Z,18.20
2018-07-12T17:16:06.059Z,18.20
2018-07-12T17:18:34.798Z,18.30
2018-07-12T17:21:03.541Z,18.30
2018-07-12T17:23:32.239Z,18.20
2018-07-12T17:26:00.960Z,18.20
2018-07-12T17:28:29.625Z,18.20
2018-07-12T17:30:58.414Z,18.20
2018-07-12T17:33:27.116Z,18.20
2018-07-12T17:35:55.836Z,18.20
2018-07-12T17:38:24.845Z,18.20
2018-07-12T17:40:53.547Z,18.20
2018-07-12T17:43:22.212Z,18.20
2018-07-12T17:45:50.916Z,18.20
2018-07-12T17:48:19.620Z,18.10
2018-07-12T17:50:48.285Z,18.10
2018-07-12T17:53:16.984Z,18.10
2018-07-12T17:55:45.650Z,18.20
2018-07-12T17:58:14.323Z,18.20
2018-07-12T18:00:43.061Z,18.20
2018-07-12T18:03:11.819Z,18.30
2018-07-12T18:05:40.533Z,18.20
2018-07-12T18:08:09.323Z,18.10
2018-07-12T18:10:38.072Z,18.20
2018-07-12T18:13:06.861Z,18.10
2018-07-12T18:15:35.569Z,18.10
2018-07-12T18:20:32.736Z,18.00
2018-07-12T18:23:01.486Z,18.00
2018-07-12T18:25:30.185Z,18.00
2018-07-12T18:27:58.912Z,18.00
2018-07-12T18:30:27.618Z,18.00
2018-07-12T18:32:56.310Z,18.00
2018-07-12T18:35:25.102Z,17.90
2018-07-12T18:37:54.056Z,18.00
2018-07-12T18:40:22.788Z,17.90
2018-07-12T18:42:51.783Z,17.90
2018-07-12T18:45:20.560Z,18.00
2018-07-12T18:47:49.549Z,17.90
2018-07-12T18:50:18.238Z,17.90
2018-07-12T18:52:46.934Z,17.90
2018-07-12T18:55:15.601Z,17.90
2018-07-12T18:57:44.370Z,18.00
2018-07-12T19:00:13.119Z,18.00
2018-07-12T19:02:41.897Z,17.90
2018-07-12T19:05:10.590Z,17.90
2018-07-12T19:07:39.359Z,17.90
2018-07-12T19:10:08.138Z,17.90
2018-07-12T19:12:37.064Z,17.90
2018-07-12T19:15:05.875Z,17.90
2018-07-12T19:17:34.564Z,17.90
2018-07-12T19:20:03.459Z,17.90
2018-07-12T19:22:32.201Z,17.90
2018-07-12T19:25:00.891Z,17.80
2018-07-12T19:27:29.593Z,17.90
2018-07-12T19:29:58.305Z,17.90
2018-07-12T19:32:27.006Z,17.90
2018-07-12T19:34:55.746Z,17.90
2018-07-12T19:37:24.438Z,17.90
2018-07-12T19:39:53.107Z,17.90
2018-07-12T19:42:21.797Z,17.90
2018-07-12T19:44:50.537Z,17.90
2018-07-12T19:47:19.254Z,17.90
2018-07-12T19:49:47.937Z,17.90
2018-07-12T19:52:16.688Z,17.90
2018-07-12T19:54:45.415Z,17.90
2018-07-12T19:57:14.270Z,17.90
2018-07-12T19:59:43.033Z,17.80
2018-07-12T20:02:11.756Z,17.80
2018-07-12T20:04:41.269Z,17.80
2018-07-12T20:07:10.140Z,17.70
2018-07-12T20:09:38.847Z,17.70
2018-07-12T20:12:07.857Z,17.70
2018-07-12T20:14:36.639Z,17.70
2018-07-12T20:17:05.423Z,17.70
2018-07-12T20:19:34.232Z,17.70
2018-07-12T20:22:03.363Z,17.70
2018-07-12T20:24:32.070Z,17.70
2018-07-12T20:27:00.794Z,17.70
2018-07-12T20:29:29.763Z,17.70
2018-07-12T20:31:58.559Z,17.70
2018-07-12T20:34:27.245Z,17.70
2018-07-12T20:36:55.941Z,17.70
2018-07-12T20:39:25.005Z,17.70
2018-07-12T20:41:53.913Z,17.70
2018-07-12T20:44:23.240Z,17.60
2018-07-12T20:46:52.248Z,17.60
2018-07-12T20:49:20.951Z,17.70
2018-07-12T20:51:49.811Z,17.70
2018-07-12T20:54:18.680Z,17.70
2018-07-12T20:56:47.400Z,17.70
2018-07-12T20:59:16.172Z,17.70
2018-07-12T21:01:45.014Z,17.70
2018-07-12T21:04:13.993Z,17.70
2018-07-12T21:06:42.933Z,17.70
2018-07-12T21:09:11.632Z,17.70
2018-07-12T21:11:41.953Z,17.70
2018-07-12T21:14:10.676Z,17.70
2018-07-12T21:16:39.364Z,17.70
2018-07-12T21:19:08.085Z,17.70
2018-07-12T21:21:36.804Z,17.70
2018-07-12T21:24:05.705Z,17.70
2018-07-12T21:26:34.664Z,17.60
2018-07-12T21:29:03.344Z,17.60
2018-07-12T21:31:32.149Z,17.60
2018-07-12T21:34:00.944Z,17.60
2018-07-12T21:36:30.284Z,17.60
2018-07-12T21:39:00.121Z,17.70
2018-07-12T21:41:28.792Z,17.60
2018-07-12T21:43:57.497Z,17.60
2018-07-12T21:46:26.205Z,17.60
2018-07-12T21:48:54.968Z,17.70
2018-07-12T21:51:23.725Z,17.70
2018-07-12T21:53:52.412Z,17.60
2018-07-12T21:56:21.725Z,17.60
2018-07-12T21:58:50.548Z,17.60
2018-07-12T22:01:19.245Z,17.60
2018-07-12T22:03:48.079Z,17.60
2018-07-12T22:06:20.701Z,17.60
2018-07-12T22:08:50.037Z,17.50
2018-07-12T22:11:19.227Z,17.50
2018-07-12T22:13:48.046Z,17.50
2018-07-12T22:16:16.732Z,17.50
2018-07-12T22:18:45.384Z,17.40
2018-07-12T22:21:14.192Z,17.40
2018-07-12T22:23:42.865Z,17.30
2018-07-12T22:26:12.413Z,17.30
2018-07-12T22:28:41.160Z,17.30
2018-07-12T22:31:09.866Z,17.20
2018-07-12T22:33:38.529Z,17.20
2018-07-12T22:36:07.256Z,17.20
2018-07-12T22:38:36.277Z,17.10
2018-07-12T22:41:04.962Z,17.10
2018-07-12T22:43:33.681Z,17.00
2018-07-12T22:46:02.354Z,17.00
2018-07-12T22:48:31.206Z,17.00
2018-07-12T22:50:59.794Z,16.90
2018-07-12T22:53:28.508Z,16.90
2018-07-12T22:55:57.193Z,16.80
2018-07-12T22:58:25.921Z,16.80
2018-07-12T23:00:54.659Z,16.70
2018-07-12T23:03:23.358Z,16.70
2018-07-12T23:05:52.157Z,16.60
2018-07-12T23:08:20.877Z,16.60
2018-07-12T23:10:49.596Z,16.60
2018-07-12T23:13:18.324Z,16.60
2018-07-12T23:15:47.048Z,16.60
2018-07-12T23:18:15.689Z,16.60
2018-07-12T23:20:44.342Z,16.70
2018-07-12T23:23:12.977Z,16.70
2018-07-12T23:25:41.596Z,16.70
2018-07-12T23:28:10.278Z,16.70
2018-07-12T23:30:38.919Z,16.70
2018-07-12T23:33:07.586Z,16.70
2018-07-12T23:35:36.268Z,16.70
2018-07-12T23:38:04.992Z,16.70
2018-07-12T23:40:33.744Z,16.80
2018-07-12T23:43:02.448Z,16.80
2018-07-12T23:45:31.148Z,16.80
2018-07-12T23:47:59.864Z,16.80
2018-07-12T23:50:28.578Z,16.80
2018-07-12T23:52:57.292Z,16.80
2018-07-12T23:55:25.988Z,16.90
2018-07-12T23:57:54.655Z,16.90
